Time,TemperatureF,DewpointF,PressureIn,WindDirection,WindDirectionDegrees,WindSpeedMPH,WindSpeedGustMPH,Humidity,HourlyPrecipIn,Conditions,Clouds,dailyrainin,SoftwareType,DateUTC
2013-07-22 00:01:00,58.0,54.0,-100.00,SW,225,1.0,1.0,88,0.00,,,-99.99,,2013-07-22 04:01:00,
2013-07-22 00:12:00,57.0,54.0,-100.00,SW,225,0.0,1.0,89,0.00,,,-99.99,,2013-07-22 04:12:00,
2013-07-22 00:22:00,57.0,54.0,-100.00,WSW,245,1.0,1.0,89,0.00,,,-99.99,,2013-07-22 04:22:00,
2013-07-22 02:01:00,55.0,53.0,-100.00,SW,230,0.0,1.0,92,0.00,,,-99.99,,2013-07-22 06:01:00,
2013-07-22 02:22:00,56.0,54.0,-100.00,West,275,1.0,1.0,93,0.00,,,-99.99,,2013-07-22 06:22:00,
2013-07-22 04:11:00,54.0,53.0,-100.00,WSW,240,0.0,1.0,94,0.00,,,-99.99,,2013-07-22 08:11:00,
2013-07-22 04:43:00,53.0,52.0,-100.00,WSW,245,1.0,1.0,94,0.00,,,-99.99,,2013-07-22 08:43:00,
2013-07-22 05:02:00,54.0,52.0,-100.00,WSW,255,0.0,2.0,95,0.00,,,-99.99,,2013-07-22 09:02:00,
2013-07-22 05:11:00,54.0,52.0,-100.00,NW,320,1.0,2.0,95,0.00,,,-99.99,,2013-07-22 09:11:00,
2013-07-22 05:22:00,54.0,52.0,-100.00,NW,320,1.0,2.0,95,0.00,,,-99.99,,2013-07-22 09:22:00,
2013-07-22 05:33:00,54.0,52.0,-100.00,North,-999,-999.0,-999.0,95,0.00,,,-99.99,,2013-07-22 09:33:00,
2013-07-22 06:11:00,54.0,53.0,-100.00,SW,220,0.0,1.0,95,0.00,,,-99.99,,2013-07-22 10:11:00,
2013-07-22 07:23:00,58.0,53.0,-100.00,East,100,1.0,2.0,83,0.00,,,-99.99,,2013-07-22 11:23:00,
2013-07-22 07:32:00,58.0,53.0,-100.00,NW,305,1.0,3.0,82,0.00,,,-99.99,,2013-07-22 11:32:00,
2013-07-22 07:52:00,60.0,53.0,-100.00,East,80,1.0,2.0,76,0.00,,,-99.99,,2013-07-22 11:52:00,
2013-07-22 08:02:00,61.0,53.0,-100.00,SE,135,0.0,4.0,76,0.00,,,-99.99,,2013-07-22 12:02:00,
2013-07-22 08:22:00,62.0,53.0,-100.00,SE,130,1.0,2.0,72,0.00,,,-99.99,,2013-07-22 12:22:00,
2013-07-22 09:22:00,65.0,52.0,-100.00,North,-999,-999.0,-999.0,63,-99.99,,,-99.99,,2013-07-22 13:22:00,
2013-07-22 10:32:00,66.0,54.0,-100.00,East,100,1.0,2.0,64,0.00,,,-99.99,,2013-07-22 14:32:00,
2013-07-22 10:43:00,68.0,54.0,-100.00,North,5,1.0,4.0,60,0.00,,,-99.99,,2013-07-22 14:43:00,
2013-07-22 10:53:00,69.0,56.0,-100.00,East,90,1.0,3.0,61,0.00,,,-99.99,,2013-07-22 14:53:00,
2013-07-22 11:02:00,69.0,55.0,-100.00,NNW,345,3.0,4.0,62,0.00,,,-99.99,,2013-07-22 15:02:00,
2013-07-22 11:11:00,69.0,56.0,-100.00,South,175,1.0,4.0,63,0.00,,,-99.99,,2013-07-22 15:11:00,
2013-07-22 11:22:00,69.0,57.0,-100.00,East,90,2.0,4.0,65,0.00,,,-99.99,,2013-07-22 15:22:00,
2013-07-22 12:01:00,69.0,58.0,-100.00,East,100,0.0,1.0,68,0.00,,,-99.99,,2013-07-22 16:01:00,
2013-07-22 12:22:00,68.0,58.0,-100.00,NW,325,2.0,4.0,70,0.00,,,-99.99,,2013-07-22 16:22:00,
2013-07-22 13:01:00,71.0,59.0,-100.00,ENE,75,1.0,4.0,66,0.00,,,-99.99,,2013-07-22 17:01:00,
2013-07-22 13:11:00,71.0,60.0,-100.00,SE,135,2.0,4.0,67,0.00,,,-99.99,,2013-07-22 17:11:00,
2013-07-22 13:23:00,71.0,60.0,-100.00,East,100,1.0,4.0,67,0.00,,,-99.99,,2013-07-22 17:23:00,
2013-07-22 13:52:00,72.0,61.0,-100.00,NNW,340,1.0,3.0,68,0.00,,,-99.99,,2013-07-22 17:52:00,
2013-07-22 14:28:00,74.0,63.0,-100.00,North,-999,-999.0,-999.0,67,0.00,,,-99.99,,2013-07-22 18:28:00,
2013-07-22 14:38:00,74.0,62.0,-100.00,SSW,210,1.0,3.0,66,0.00,,,-99.99,,2013-07-22 18:38:00,
2013-07-22 15:17:00,75.0,63.0,-100.00,SSE,150,4.0,7.0,66,0.00,,,-99.99,,2013-07-22 19:17:00,
2013-07-22 15:25:00,75.0,64.0,-100.00,South,170,2.0,7.0,68,0.00,,,-99.99,,2013-07-22 19:25:00,
2013-07-22 15:46:00,75.0,64.0,-100.00,SW,215,1.0,7.0,68,0.00,,,-99.99,,2013-07-22 19:46:00,
2013-07-22 15:55:00,75.0,64.0,-100.00,SSW,200,2.0,7.0,68,0.00,,,-99.99,,2013-07-22 19:55:00,
2013-07-22 16:05:00,75.0,64.0,-100.00,SSE,165,6.0,11.0,67,0.00,,,-99.99,,2013-07-22 20:05:00,
2013-07-22 16:22:00,76.0,64.0,-100.00,South,190,1.0,4.0,66,0.00,,,-99.99,,2013-07-22 20:22:00,
2013-07-22 16:32:00,76.0,64.0,-100.00,SSW,210,1.0,4.0,67,0.00,,,-99.99,,2013-07-22 20:32:00,
2013-07-22 17:22:00,75.0,64.0,-100.00,SW,225,1.0,9.0,68,0.00,,,-99.99,,2013-07-22 21:22:00,
2013-07-22 17:43:00,76.0,64.0,-100.00,South,180,1.0,4.0,66,0.00,,,-99.99,,2013-07-22 21:43:00,
2013-07-22 18:01:00,76.0,64.0,-100.00,NW,305,0.0,2.0,66,0.00,,,-99.99,,2013-07-22 22:01:00,
2013-07-22 18:11:00,76.0,64.0,-100.00,South,190,2.0,6.0,66,0.00,,,-99.99,,2013-07-22 22:11:00,
2013-07-22 18:22:00,75.0,64.0,-100.00,South,190,2.0,5.0,68,0.00,,,-99.99,,2013-07-22 22:22:00,
2013-07-22 18:52:00,74.0,64.0,-100.00,South,190,1.0,6.0,69,0.00,,,-99.99,,2013-07-22 22:52:00,
2013-07-22 19:01:00,74.0,64.0,-100.00,South,185,1.0,3.0,69,0.00,,,-99.99,,2013-07-22 23:01:00,
2013-07-22 19:22:00,73.0,64.0,-100.00,SW,235,0.0,2.0,72,0.00,,,-99.99,,2013-07-22 23:22:00,
2013-07-22 20:22:00,71.0,63.0,-100.00,SW,225,1.0,2.0,77,0.00,,,-99.99,,2013-07-23 00:22:00,
2013-07-22 20:52:00,69.0,64.0,-100.00,WSW,240,0.0,1.0,82,0.00,,,-99.99,,2013-07-23 00:52:00,
2013-07-22 21:01:00,69.0,63.0,-100.00,SW,225,0.0,1.0,84,0.00,,,-99.99,,2013-07-23 01:01:00,
2013-07-22 21:22:00,67.0,64.0,-100.00,WSW,255,1.0,1.0,87,0.00,,,-99.99,,2013-07-23 01:22:00,
2013-07-22 21:43:00,67.0,63.0,-100.00,SSW,205,0.0,1.0,89,0.00,,,-99.99,,2013-07-23 01:43:00,
2013-07-22 22:22:00,66.0,63.0,-100.00,SW,225,0.0,1.0,90,0.00,,,-99.99,,2013-07-23 02:22:00,
2013-07-22 23:02:00,66.0,63.0,-100.00,West,260,0.0,1.0,91,0.00,,,-99.99,,2013-07-23 03:02:00,
2013-07-22 23:11:00,66.0,63.0,-100.00,West,270,0.0,0.0,91,0.00,,,-99.99,,2013-07-23 03:11:00,
2013-07-22 23:22:00,65.0,63.0,-100.00,South,185,0.0,1.0,92,0.00,,,-99.99,,2013-07-23 03:22:00,
2013-07-22 23:43:00,65.0,63.0,-100.00,WSW,250,0.0,1.0,92,0.00,,,-99.99,,2013-07-23 03:43:00,
2013-07-22 23:52:00,65.0,63.0,-100.00,WSW,255,0.0,1.0,92,0.00,,,-99.99,,2013-07-23 03:52:00,